sensor_id;sensor_type;location;lat;lon;timestamp;temperature;humidity
69546;SHT31;56766;52.260;20.746;2024-01-11T00:02:00;-6.40;84.81
69546;SHT31;56766;52.260;20.746;2024-01-11T00:04:27;-6.41;84.83
69546;SHT31;56766;52.260;20.746;2024-01-11T00:06:54;-6.43;84.86
69546;SHT31;56766;52.260;20.746;2024-01-11T00:09:20;-6.43;84.89
69546;SHT31;56766;52.260;20.746;2024-01-11T00:11:47;-6.44;84.90
69546;SHT31;56766;52.260;20.746;2024-01-11T00:14:14;-6.44;84.89
69546;SHT31;56766;52.260;20.746;2024-01-11T00:16:41;-6.46;84.89
69546;SHT31;56766;52.260;20.746;2024-01-11T00:19:08;-6.47;84.91
69546;SHT31;56766;52.260;20.746;2024-01-11T00:21:35;-6.48;84.91
69546;SHT31;56766;52.260;20.746;2024-01-11T00:24:02;-6.49;84.99
69546;SHT31;56766;52.260;20.746;2024-01-11T00:26:29;-6.50;85.00
69546;SHT31;56766;52.260;20.746;2024-01-11T00:28:56;-6.50;85.10
69546;SHT31;56766;52.260;20.746;2024-01-11T00:31:23;-6.50;85.17
69546;SHT31;56766;52.260;20.746;2024-01-11T00:33:49;-6.50;85.21
69546;SHT31;56766;52.260;20.746;2024-01-11T00:36:19;-6.49;85.20
69546;SHT31;56766;52.260;20.746;2024-01-11T00:38:49;-6.50;85.27
69546;SHT31;56766;52.260;20.746;2024-01-11T00:41:16;-6.50;85.32
69546;SHT31;56766;52.260;20.746;2024-01-11T00:43:42;-6.49;85.39
69546;SHT31;56766;52.260;20.746;2024-01-11T00:46:09;-6.49;85.40
69546;SHT31;56766;52.260;20.746;2024-01-11T00:48:36;-6.49;85.38
69546;SHT31;56766;52.260;20.746;2024-01-11T00:51:04;-6.49;85.43
69546;SHT31;56766;52.260;20.746;2024-01-11T00:53:32;-6.50;85.47
69546;SHT31;56766;52.260;20.746;2024-01-11T00:56:00;-6.51;85.50
69546;SHT31;56766;52.260;20.746;2024-01-11T00:58:27;-6.51;85.51
69546;SHT31;56766;52.260;20.746;2024-01-11T01:00:54;-6.49;85.59
69546;SHT31;56766;52.260;20.746;2024-01-11T01:03:22;-6.47;85.63
69546;SHT31;56766;52.260;20.746;2024-01-11T01:05:49;-6.44;85.70
69546;SHT31;56766;52.260;20.746;2024-01-11T01:08:15;-6.41;85.70
69546;SHT31;56766;52.260;20.746;2024-01-11T01:10:42;-6.38;85.70
69546;SHT31;56766;52.260;20.746;2024-01-11T01:13:09;-6.35;85.71
69546;SHT31;56766;52.260;20.746;2024-01-11T01:15:36;-6.33;85.76
69546;SHT31;56766;52.260;20.746;2024-01-11T01:18:03;-6.29;85.88
69546;SHT31;56766;52.260;20.746;2024-01-11T01:20:31;-6.22;85.90
69546;SHT31;56766;52.260;20.746;2024-01-11T01:22:58;-6.16;85.95
69546;SHT31;56766;52.260;20.746;2024-01-11T01:25:24;-6.11;86.00
69546;SHT31;56766;52.260;20.746;2024-01-11T01:27:52;-6.06;86.00
69546;SHT31;56766;52.260;20.746;2024-01-11T01:30:19;-6.01;86.02
69546;SHT31;56766;52.260;20.746;2024-01-11T01:32:46;-5.97;86.10
69546;SHT31;56766;52.260;20.746;2024-01-11T01:35:13;-5.93;86.15
69546;SHT31;56766;52.260;20.746;2024-01-11T01:37:39;-5.89;86.19
69546;SHT31;56766;52.260;20.746;2024-01-11T01:40:06;-5.85;86.20
69546;SHT31;56766;52.260;20.746;2024-01-11T01:42:34;-5.81;86.20
69546;SHT31;56766;52.260;20.746;2024-01-11T01:45:00;-5.77;86.20
69546;SHT31;56766;52.260;20.746;2024-01-11T01:47:28;-5.74;86.21
69546;SHT31;56766;52.260;20.746;2024-01-11T01:49:55;-5.72;86.21
69546;SHT31;56766;52.260;20.746;2024-01-11T01:52:23;-5.69;86.28
69546;SHT31;56766;52.260;20.746;2024-01-11T01:54:51;-5.66;86.29
69546;SHT31;56766;52.260;20.746;2024-01-11T01:57:19;-5.64;86.24
69546;SHT31;56766;52.260;20.746;2024-01-11T01:59:51;-5.63;86.24
69546;SHT31;56766;52.260;20.746;2024-01-11T02:02:21;-5.61;86.23
69546;SHT31;56766;52.260;20.746;2024-01-11T02:04:49;-5.59;86.20
69546;SHT31;56766;52.260;20.746;2024-01-11T02:07:16;-5.55;86.20
69546;SHT31;56766;52.260;20.746;2024-01-11T02:09:43;-5.54;86.20
69546;SHT31;56766;52.260;20.746;2024-01-11T02:12:10;-5.55;86.20
69546;SHT31;56766;52.260;20.746;2024-01-11T02:14:40;-5.52;86.20
69546;SHT31;56766;52.260;20.746;2024-01-11T02:17:07;-5.50;86.20
69546;SHT31;56766;52.260;20.746;2024-01-11T02:19:33;-5.48;86.20
69546;SHT31;56766;52.260;20.746;2024-01-11T02:22:05;-5.46;86.20
69546;SHT31;56766;52.260;20.746;2024-01-11T02:24:37;-5.47;86.25
69546;SHT31;56766;52.260;20.746;2024-01-11T02:27:05;-5.46;86.30
69546;SHT31;56766;52.260;20.746;2024-01-11T02:29:32;-5.42;86.33
69546;SHT31;56766;52.260;20.746;2024-01-11T02:32:01;-5.43;86.40
69546;SHT31;56766;52.260;20.746;2024-01-11T02:34:29;-5.43;86.44
69546;SHT31;56766;52.260;20.746;2024-01-11T02:36:57;-5.41;86.49
69546;SHT31;56766;52.260;20.746;2024-01-11T02:39:25;-5.41;86.50
69546;SHT31;56766;52.260;20.746;2024-01-11T02:41:56;-5.41;86.60
69546;SHT31;56766;52.260;20.746;2024-01-11T02:44:24;-5.38;86.61
69546;SHT31;56766;52.260;20.746;2024-01-11T02:46:51;-5.37;86.61
69546;SHT31;56766;52.260;20.746;2024-01-11T02:49:18;-5.36;86.74
69546;SHT31;56766;52.260;20.746;2024-01-11T02:51:45;-5.38;86.85
69546;SHT31;56766;52.260;20.746;2024-01-11T02:54:12;-5.38;86.90
69546;SHT31;56766;52.260;20.746;2024-01-11T02:56:39;-5.35;86.90
69546;SHT31;56766;52.260;20.746;2024-01-11T02:59:05;-5.33;86.89
69546;SHT31;56766;52.260;20.746;2024-01-11T03:01:32;-5.32;86.90
69546;SHT31;56766;52.260;20.746;2024-01-11T03:03:59;-5.31;86.98
69546;SHT31;56766;52.260;20.746;2024-01-11T03:06:25;-5.28;86.94
69546;SHT31;56766;52.260;20.746;2024-01-11T03:08:52;-5.24;86.90
69546;SHT31;56766;52.260;20.746;2024-01-11T03:11:19;-5.22;86.93
69546;SHT31;56766;52.260;20.746;2024-01-11T03:13:45;-5.22;86.95
69546;SHT31;56766;52.260;20.746;2024-01-11T03:16:12;-5.20;86.99
69546;SHT31;56766;52.260;20.746;2024-01-11T03:18:40;-5.18;87.00
69546;SHT31;56766;52.260;20.746;2024-01-11T03:21:06;-5.17;87.04
69546;SHT31;56766;52.260;20.746;2024-01-11T03:23:33;-5.16;87.08
69546;SHT31;56766;52.260;20.746;2024-01-11T03:26:00;-5.15;87.10
69546;SHT31;56766;52.260;20.746;2024-01-11T03:28:27;-5.12;87.06
69546;SHT31;56766;52.260;20.746;2024-01-11T03:30:54;-5.10;87.00
69546;SHT31;56766;52.260;20.746;2024-01-11T03:33:20;-5.11;87.02
69546;SHT31;56766;52.260;20.746;2024-01-11T03:35:47;-5.10;87.08
69546;SHT31;56766;52.260;20.746;2024-01-11T03:38:14;-5.09;87.05
69546;SHT31;56766;52.260;20.746;2024-01-11T03:40:40;-5.08;87.00
69546;SHT31;56766;52.260;20.746;2024-01-11T03:43:07;-5.06;87.00
69546;SHT31;56766;52.260;20.746;2024-01-11T03:45:34;-5.04;86.90
69546;SHT31;56766;52.260;20.746;2024-01-11T03:48:00;-5.03;86.83
69546;SHT31;56766;52.260;20.746;2024-01-11T03:50:27;-5.03;86.81
69546;SHT31;56766;52.260;20.746;2024-01-11T03:52:53;-5.05;86.80
69546;SHT31;56766;52.260;20.746;2024-01-11T03:55:20;-5.04;86.83
69546;SHT31;56766;52.260;20.746;2024-01-11T03:57:47;-5.04;86.90
69546;SHT31;56766;52.260;20.746;2024-01-11T04:00:14;-5.05;86.90
69546;SHT31;56766;52.260;20.746;2024-01-11T04:02:41;-5.06;86.96
69546;SHT31;56766;52.260;20.746;2024-01-11T04:05:08;-5.08;87.00
69546;SHT31;56766;52.260;20.746;2024-01-11T04:07:34;-5.07;87.06
69546;SHT31;56766;52.260;20.746;2024-01-11T04:10:01;-5.05;87.10
69546;SHT31;56766;52.260;20.746;2024-01-11T04:12:28;-5.04;87.10
69546;SHT31;56766;52.260;20.746;2024-01-11T04:14:54;-5.05;87.20
69546;SHT31;56766;52.260;20.746;2024-01-11T04:17:21;-5.04;87.23
69546;SHT31;56766;52.260;20.746;2024-01-11T04:19:48;-5.03;87.30
69546;SHT31;56766;52.260;20.746;2024-01-11T04:22:15;-5.05;87.34
69546;SHT31;56766;52.260;20.746;2024-01-11T04:24:43;-5.06;87.47
69546;SHT31;56766;52.260;20.746;2024-01-11T04:27:10;-5.05;87.50
69546;SHT31;56766;52.260;20.746;2024-01-11T04:29:36;-5.04;87.56
69546;SHT31;56766;52.260;20.746;2024-01-11T04:32:03;-5.04;87.65
69546;SHT31;56766;52.260;20.746;2024-01-11T04:34:30;-5.04;87.77
69546;SHT31;56766;52.260;20.746;2024-01-11T04:36:57;-5.02;87.79
69546;SHT31;56766;52.260;20.746;2024-01-11T04:39:23;-4.99;87.80
69546;SHT31;56766;52.260;20.746;2024-01-11T04:41:50;-4.98;87.82
69546;SHT31;56766;52.260;20.746;2024-01-11T04:44:17;-4.96;87.86
69546;SHT31;56766;52.260;20.746;2024-01-11T04:46:43;-4.96;87.91
69546;SHT31;56766;52.260;20.746;2024-01-11T04:49:10;-4.95;88.00
69546;SHT31;56766;52.260;20.746;2024-01-11T04:51:37;-4.95;88.07
69546;SHT31;56766;52.260;20.746;2024-01-11T04:54:03;-4.94;88.16
69546;SHT31;56766;52.260;20.746;2024-01-11T04:56:30;-4.92;88.20
69546;SHT31;56766;52.260;20.746;2024-01-11T04:58:57;-4.90;88.23
69546;SHT31;56766;52.260;20.746;2024-01-11T05:01:25;-4.87;88.30
69546;SHT31;56766;52.260;20.746;2024-01-11T05:03:51;-4.88;88.34
69546;SHT31;56766;52.260;20.746;2024-01-11T05:06:20;-4.89;88.49
69546;SHT31;56766;52.260;20.746;2024-01-11T05:08:52;-4.86;88.50
69546;SHT31;56766;52.260;20.746;2024-01-11T05:11:20;-4.83;88.53
69546;SHT31;56766;52.260;20.746;2024-01-11T05:13:48;-4.81;88.54
69546;SHT31;56766;52.260;20.746;2024-01-11T05:16:26;-4.80;88.60
69546;SHT31;56766;52.260;20.746;2024-01-11T05:18:55;-4.80;88.69
69546;SHT31;56766;52.260;20.746;2024-01-11T05:21:24;-4.77;88.70
69546;SHT31;56766;52.260;20.746;2024-01-11T05:23:51;-4.75;88.70
69546;SHT31;56766;52.260;20.746;2024-01-11T05:26:19;-4.75;88.67
69546;SHT31;56766;52.260;20.746;2024-01-11T05:28:47;-4.75;88.69
69546;SHT31;56766;52.260;20.746;2024-01-11T05:31:15;-4.73;88.70
69546;SHT31;56766;52.260;20.746;2024-01-11T05:33:43;-4.72;88.66
69546;SHT31;56766;52.260;20.746;2024-01-11T05:36:09;-4.71;88.62
69546;SHT31;56766;52.260;20.746;2024-01-11T05:38:39;-4.72;88.60
69546;SHT31;56766;52.260;20.746;2024-01-11T05:41:06;-4.70;88.59
69546;SHT31;56766;52.260;20.746;2024-01-11T05:43:34;-4.68;88.54
69546;SHT31;56766;52.260;20.746;2024-01-11T05:46:00;-4.67;88.50
69546;SHT31;56766;52.260;20.746;2024-01-11T05:48:28;-4.65;88.50
69546;SHT31;56766;52.260;20.746;2024-01-11T05:50:55;-4.64;88.42
69546;SHT31;56766;52.260;20.746;2024-01-11T05:53:21;-4.64;88.40
69546;SHT31;56766;52.260;20.746;2024-01-11T05:55:49;-4.62;88.40
69546;SHT31;56766;52.260;20.746;2024-01-11T05:58:15;-4.62;88.40
69546;SHT31;56766;52.260;20.746;2024-01-11T06:00:42;-4.60;88.37
69546;SHT31;56766;52.260;20.746;2024-01-11T06:03:12;-4.61;88.31
69546;SHT31;56766;52.260;20.746;2024-01-11T06:05:39;-4.60;88.30
69546;SHT31;56766;52.260;20.746;2024-01-11T06:08:06;-4.59;88.29
69546;SHT31;56766;52.260;20.746;2024-01-11T06:10:33;-4.59;88.26
69546;SHT31;56766;52.260;20.746;2024-01-11T06:13:00;-4.58;88.24
69546;SHT31;56766;52.260;20.746;2024-01-11T06:15:26;-4.54;88.22
69546;SHT31;56766;52.260;20.746;2024-01-11T06:17:53;-4.54;88.20
69546;SHT31;56766;52.260;20.746;2024-01-11T06:20:20;-4.53;88.20
69546;SHT31;56766;52.260;20.746;2024-01-11T06:22:47;-4.50;88.20
69546;SHT31;56766;52.260;20.746;2024-01-11T06:25:13;-4.49;88.20
69546;SHT31;56766;52.260;20.746;2024-01-11T06:27:42;-4.47;88.21
69546;SHT31;56766;52.260;20.746;2024-01-11T06:30:10;-4.46;88.27
69546;SHT31;56766;52.260;20.746;2024-01-11T06:32:37;-4.47;88.30
69546;SHT31;56766;52.260;20.746;2024-01-11T06:35:04;-4.46;88.34
69546;SHT31;56766;52.260;20.746;2024-01-11T06:37:32;-4.43;88.39
69546;SHT31;56766;52.260;20.746;2024-01-11T06:39:59;-4.41;88.40
69546;SHT31;56766;52.260;20.746;2024-01-11T06:42:26;-4.40;88.48
69546;SHT31;56766;52.260;20.746;2024-01-11T06:44:52;-4.38;88.55
69546;SHT31;56766;52.260;20.746;2024-01-11T06:47:19;-4.35;88.62
69546;SHT31;56766;52.260;20.746;2024-01-11T06:49:46;-4.34;88.73
69546;SHT31;56766;52.260;20.746;2024-01-11T06:52:13;-4.34;88.91
69546;SHT31;56766;52.260;20.746;2024-01-11T06:54:40;-4.34;89.07
69546;SHT31;56766;52.260;20.746;2024-01-11T06:57:06;-4.33;89.16
69546;SHT31;56766;52.260;20.746;2024-01-11T06:59:33;-4.31;89.25
69546;SHT31;56766;52.260;20.746;2024-01-11T07:02:00;-4.28;89.30
69546;SHT31;56766;52.260;20.746;2024-01-11T07:04:27;-4.25;89.32
69546;SHT31;56766;52.260;20.746;2024-01-11T07:06:53;-4.24;89.40
69546;SHT31;56766;52.260;20.746;2024-01-11T07:09:20;-4.21;89.44
69546;SHT31;56766;52.260;20.746;2024-01-11T07:11:47;-4.19;89.47
69546;SHT31;56766;52.260;20.746;2024-01-11T07:14:13;-4.16;89.46
69546;SHT31;56766;52.260;20.746;2024-01-11T07:16:40;-4.12;89.40
69546;SHT31;56766;52.260;20.746;2024-01-11T07:19:07;-4.09;89.42
69546;SHT31;56766;52.260;20.746;2024-01-11T07:21:33;-4.07;89.49
69546;SHT31;56766;52.260;20.746;2024-01-11T07:24:00;-4.02;89.50
69546;SHT31;56766;52.260;20.746;2024-01-11T07:26:27;-3.97;89.44
69546;SHT31;56766;52.260;20.746;2024-01-11T07:28:54;-3.92;89.41
69546;SHT31;56766;52.260;20.746;2024-01-11T07:31:21;-3.86;89.40
69546;SHT31;56766;52.260;20.746;2024-01-11T07:33:48;-3.81;89.37
69546;SHT31;56766;52.260;20.746;2024-01-11T07:36:15;-3.76;89.31
69546;SHT31;56766;52.260;20.746;2024-01-11T07:38:41;-3.72;89.30
69546;SHT31;56766;52.260;20.746;2024-01-11T07:41:08;-3.69;89.29
69546;SHT31;56766;52.260;20.746;2024-01-11T07:43:35;-3.66;89.30
69546;SHT31;56766;52.260;20.746;2024-01-11T07:46:02;-3.63;89.30
69546;SHT31;56766;52.260;20.746;2024-01-11T07:48:29;-3.59;89.30
69546;SHT31;56766;52.260;20.746;2024-01-11T07:50:57;-3.56;89.30
69546;SHT31;56766;52.260;20.746;2024-01-11T07:53:25;-3.53;89.31
69546;SHT31;56766;52.260;20.746;2024-01-11T07:55:52;-3.51;89.30
69546;SHT31;56766;52.260;20.746;2024-01-11T07:58:19;-3.48;89.32
69546;SHT31;56766;52.260;20.746;2024-01-11T08:00:47;-3.46;89.30
69546;SHT31;56766;52.260;20.746;2024-01-11T08:03:15;-3.45;89.31
69546;SHT31;56766;52.260;20.746;2024-01-11T08:05:42;-3.41;89.30
69546;SHT31;56766;52.260;20.746;2024-01-11T08:08:10;-3.40;89.33
69546;SHT31;56766;52.260;20.746;2024-01-11T08:10:37;-3.40;89.39
69546;SHT31;56766;52.260;20.746;2024-01-11T08:13:04;-3.39;89.43
69546;SHT31;56766;52.260;20.746;2024-01-11T08:15:30;-3.37;89.49
69546;SHT31;56766;52.260;20.746;2024-01-11T08:17:57;-3.34;89.48
69546;SHT31;56766;52.260;20.746;2024-01-11T08:20:24;-3.29;89.40
69546;SHT31;56766;52.260;20.746;2024-01-11T08:22:52;-3.25;89.40
69546;SHT31;56766;52.260;20.746;2024-01-11T08:25:18;-3.21;89.40
69546;SHT31;56766;52.260;20.746;2024-01-11T08:27:45;-3.16;89.40
69546;SHT31;56766;52.260;20.746;2024-01-11T08:30:12;-3.13;89.35
69546;SHT31;56766;52.260;20.746;2024-01-11T08:32:39;-3.09;89.30
69546;SHT31;56766;52.260;20.746;2024-01-11T08:35:09;-3.08;89.32
69546;SHT31;56766;52.260;20.746;2024-01-11T08:37:59;-3.07;89.40
69546;SHT31;56766;52.260;20.746;2024-01-11T08:40:25;-3.04;89.37
69546;SHT31;56766;52.260;20.746;2024-01-11T08:42:52;-3.03;89.37
69546;SHT31;56766;52.260;20.746;2024-01-11T08:45:19;-3.01;89.37
69546;SHT31;56766;52.260;20.746;2024-01-11T08:47:45;-2.96;89.34
69546;SHT31;56766;52.260;20.746;2024-01-11T08:50:13;-2.94;89.30
69546;SHT31;56766;52.260;20.746;2024-01-11T08:52:42;-2.89;89.29
69546;SHT31;56766;52.260;20.746;2024-01-11T08:55:08;-2.87;89.26
69546;SHT31;56766;52.260;20.746;2024-01-11T08:57:35;-2.83;89.23
69546;SHT31;56766;52.260;20.746;2024-01-11T09:00:03;-2.81;89.20
69546;SHT31;56766;52.260;20.746;2024-01-11T09:02:33;-2.78;89.20
69546;SHT31;56766;52.260;20.746;2024-01-11T09:05:01;-2.76;89.18
69546;SHT31;56766;52.260;20.746;2024-01-11T09:07:29;-2.74;89.11
69546;SHT31;56766;52.260;20.746;2024-01-11T09:09:56;-2.73;89.14
69546;SHT31;56766;52.260;20.746;2024-01-11T09:12:25;-2.70;89.18
69546;SHT31;56766;52.260;20.746;2024-01-11T09:14:52;-2.67;89.17
69546;SHT31;56766;52.260;20.746;2024-01-11T09:17:18;-2.64;89.10
69546;SHT31;56766;52.260;20.746;2024-01-11T09:19:45;-2.62;89.10
69546;SHT31;56766;52.260;20.746;2024-01-11T09:22:12;-2.55;89.10
69546;SHT31;56766;52.260;20.746;2024-01-11T09:24:39;-2.47;89.02
69546;SHT31;56766;52.260;20.746;2024-01-11T09:27:07;-2.39;88.97
69546;SHT31;56766;52.260;20.746;2024-01-11T09:29:33;-2.35;88.89
69546;SHT31;56766;52.260;20.746;2024-01-11T09:32:00;-2.25;88.82
69546;SHT31;56766;52.260;20.746;2024-01-11T09:34:27;-2.13;88.72
69546;SHT31;56766;52.260;20.746;2024-01-11T09:36:54;-2.01;88.62
69546;SHT31;56766;52.260;20.746;2024-01-11T09:39:25;-1.87;88.49
69546;SHT31;56766;52.260;20.746;2024-01-11T09:42:04;-1.78;88.30
69546;SHT31;56766;52.260;20.746;2024-01-11T09:44:33;-1.71;88.17
69546;SHT31;56766;52.260;20.746;2024-01-11T09:47:01;-1.67;87.99
69546;SHT31;56766;52.260;20.746;2024-01-11T09:49:30;-1.65;87.99
69546;SHT31;56766;52.260;20.746;2024-01-11T09:52:00;-1.65;87.90
69546;SHT31;56766;52.260;20.746;2024-01-11T09:54:29;-1.67;87.84
69546;SHT31;56766;52.260;20.746;2024-01-11T09:56:59;-1.73;87.80
69546;SHT31;56766;52.260;20.746;2024-01-11T09:59:27;-1.80;87.76
69546;SHT31;56766;52.260;20.746;2024-01-11T10:01:54;-1.86;87.86
69546;SHT31;56766;52.260;20.746;2024-01-11T10:04:22;-1.91;87.90
69546;SHT31;56766;52.260;20.746;2024-01-11T10:06:49;-1.94;87.96
69546;SHT31;56766;52.260;20.746;2024-01-11T10:09:18;-1.98;88.00
69546;SHT31;56766;52.260;20.746;2024-01-11T10:11:45;-2.01;88.06
69546;SHT31;56766;52.260;20.746;2024-01-11T10:14:12;-2.00;88.12
69546;SHT31;56766;52.260;20.746;2024-01-11T10:16:41;-1.94;88.19
69546;SHT31;56766;52.260;20.746;2024-01-11T10:19:10;-1.83;88.15
69546;SHT31;56766;52.260;20.746;2024-01-11T10:21:39;-1.74;88.10
69546;SHT31;56766;52.260;20.746;2024-01-11T10:24:06;-1.67;87.98
69546;SHT31;56766;52.260;20.746;2024-01-11T10:26:33;-1.62;87.92
69546;SHT31;56766;52.260;20.746;2024-01-11T10:29:02;-1.61;87.91
69546;SHT31;56766;52.260;20.746;2024-01-11T10:31:29;-1.62;87.93
69546;SHT31;56766;52.260;20.746;2024-01-11T10:33:57;-1.63;87.90
69546;SHT31;56766;52.260;20.746;2024-01-11T10:36:23;-1.65;87.96
69546;SHT31;56766;52.260;20.746;2024-01-11T10:38:53;-1.68;87.99
69546;SHT31;56766;52.260;20.746;2024-01-11T10:41:23;-1.70;88.06
69546;SHT31;56766;52.260;20.746;2024-01-11T10:43:52;-1.64;88.10
69546;SHT31;56766;52.260;20.746;2024-01-11T10:46:25;-1.55;88.09
69546;SHT31;56766;52.260;20.746;2024-01-11T10:48:57;-1.50;88.05
69546;SHT31;56766;52.260;20.746;2024-01-11T10:51:32;-1.43;88.10
69546;SHT31;56766;52.260;20.746;2024-01-11T10:54:01;-1.37;88.05
69546;SHT31;56766;52.260;20.746;2024-01-11T10:56:31;-1.30;88.00
69546;SHT31;56766;52.260;20.746;2024-01-11T10:59:01;-1.26;87.95
69546;SHT31;56766;52.260;20.746;2024-01-11T11:01:31;-1.27;87.90
69546;SHT31;56766;52.260;20.746;2024-01-11T11:04:00;-1.26;87.91
69546;SHT31;56766;52.260;20.746;2024-01-11T11:06:30;-1.25;87.94
69546;SHT31;56766;52.260;20.746;2024-01-11T11:08:59;-1.26;87.99
69546;SHT31;56766;52.260;20.746;2024-01-11T11:11:27;-1.28;88.01
69546;SHT31;56766;52.260;20.746;2024-01-11T11:13:58;-1.27;88.08
69546;SHT31;56766;52.260;20.746;2024-01-11T11:16:28;-1.24;88.10
69546;SHT31;56766;52.260;20.746;2024-01-11T11:18:55;-1.22;88.07
69546;SHT31;56766;52.260;20.746;2024-01-11T11:21:23;-1.19;88.08
69546;SHT31;56766;52.260;20.746;2024-01-11T11:23:51;-1.20;88.03
69546;SHT31;56766;52.260;20.746;2024-01-11T11:26:17;-1.24;88.03
69546;SHT31;56766;52.260;20.746;2024-01-11T11:28:46;-1.26;88.09
69546;SHT31;56766;52.260;20.746;2024-01-11T11:31:38;-1.27;88.18
69546;SHT31;56766;52.260;20.746;2024-01-11T11:34:13;-1.28;88.20
69546;SHT31;56766;52.260;20.746;2024-01-11T11:36:41;-1.29;88.28
69546;SHT31;56766;52.260;20.746;2024-01-11T11:39:10;-1.28;88.30
69546;SHT31;56766;52.260;20.746;2024-01-11T11:41:41;-1.27;88.30
69546;SHT31;56766;52.260;20.746;2024-01-11T11:44:12;-1.26;88.30
69546;SHT31;56766;52.260;20.746;2024-01-11T11:46:42;-1.26;88.30
69546;SHT31;56766;52.260;20.746;2024-01-11T11:49:10;-1.23;88.36
69546;SHT31;56766;52.260;20.746;2024-01-11T11:51:39;-1.20;88.40
69546;SHT31;56766;52.260;20.746;2024-01-11T11:54:08;-1.16;88.40
69546;SHT31;56766;52.260;20.746;2024-01-11T11:56:41;-1.10;88.40
69546;SHT31;56766;52.260;20.746;2024-01-11T11:59:08;-1.03;88.39
69546;SHT31;56766;52.260;20.746;2024-01-11T12:01:35;-0.98;88.36
69546;SHT31;56766;52.260;20.746;2024-01-11T12:04:01;-0.93;88.30
69546;SHT31;56766;52.260;20.746;2024-01-11T12:06:28;-0.90;88.25
69546;SHT31;56766;52.260;20.746;2024-01-11T12:08:55;-0.86;88.22
69546;SHT31;56766;52.260;20.746;2024-01-11T12:11:23;-0.80;88.20
69546;SHT31;56766;52.260;20.746;2024-01-11T12:13:50;-0.68;88.23
69546;SHT31;56766;52.260;20.746;2024-01-11T12:16:19;-0.62;88.11
69546;SHT31;56766;52.260;20.746;2024-01-11T12:18:48;-0.57;88.02
69546;SHT31;56766;52.260;20.746;2024-01-11T12:21:16;-0.53;88.04
69546;SHT31;56766;52.260;20.746;2024-01-11T12:23:43;-0.53;87.92
69546;SHT31;56766;52.260;20.746;2024-01-11T12:26:11;-0.52;87.92
69546;SHT31;56766;52.260;20.746;2024-01-11T12:28:40;-0.48;87.91
69546;SHT31;56766;52.260;20.746;2024-01-11T12:31:09;-0.44;87.90
69546;SHT31;56766;52.260;20.746;2024-01-11T12:33:36;-0.41;87.89
69546;SHT31;56766;52.260;20.746;2024-01-11T12:36:06;-0.34;87.83
69546;SHT31;56766;52.260;20.746;2024-01-11T12:38:35;-0.30;87.76
69546;SHT31;56766;52.260;20.746;2024-01-11T12:41:02;-0.26;87.77
69546;SHT31;56766;52.260;20.746;2024-01-11T12:43:30;-0.22;87.71
69546;SHT31;56766;52.260;20.746;2024-01-11T12:45:57;-0.21;87.68
69546;SHT31;56766;52.260;20.746;2024-01-11T12:48:24;-0.17;87.70
69546;SHT31;56766;52.260;20.746;2024-01-11T12:50:51;-0.17;87.62
69546;SHT31;56766;52.260;20.746;2024-01-11T12:53:20;-0.19;87.60
69546;SHT31;56766;52.260;20.746;2024-01-11T12:55:49;-0.20;87.61
69546;SHT31;56766;52.260;20.746;2024-01-11T12:58:29;-0.19;87.67
69546;SHT31;56766;52.260;20.746;2024-01-11T13:00:56;-0.20;87.63
69546;SHT31;56766;52.260;20.746;2024-01-11T13:03:25;-0.20;87.68
69546;SHT31;56766;52.260;20.746;2024-01-11T13:05:54;-0.19;87.66
69546;SHT31;56766;52.260;20.746;2024-01-11T13:08:20;-0.19;87.67
69546;SHT31;56766;52.260;20.746;2024-01-11T13:10:47;-0.21;87.60
69546;SHT31;56766;52.260;20.746;2024-01-11T13:13:14;-0.23;87.60
69546;SHT31;56766;52.260;20.746;2024-01-11T13:15:40;-0.24;87.67
69546;SHT31;56766;52.260;20.746;2024-01-11T13:18:07;-0.28;87.65
69546;SHT31;56766;52.260;20.746;2024-01-11T13:20:34;-0.30;87.70
69546;SHT31;56766;52.260;20.746;2024-01-11T13:23:19;-0.33;87.73
69546;SHT31;56766;52.260;20.746;2024-01-11T13:25:50;-0.38;87.83
69546;SHT31;56766;52.260;20.746;2024-01-11T13:28:17;-0.41;87.90
69546;SHT31;56766;52.260;20.746;2024-01-11T13:30:46;-0.42;87.97
69546;SHT31;56766;52.260;20.746;2024-01-11T13:33:13;-0.44;88.03
69546;SHT31;56766;52.260;20.746;2024-01-11T13:35:43;-0.44;88.10
69546;SHT31;56766;52.260;20.746;2024-01-11T13:38:11;-0.44;88.14
69546;SHT31;56766;52.260;20.746;2024-01-11T13:40:37;-0.46;88.20
69546;SHT31;56766;52.260;20.746;2024-01-11T13:43:06;-0.47;88.24
69546;SHT31;56766;52.260;20.746;2024-01-11T13:45:32;-0.50;88.33
69546;SHT31;56766;52.260;20.746;2024-01-11T13:48:03;-0.51;88.40
69546;SHT31;56766;52.260;20.746;2024-01-11T13:50:31;-0.51;88.50
69546;SHT31;56766;52.260;20.746;2024-01-11T13:52:59;-0.50;88.57
69546;SHT31;56766;52.260;20.746;2024-01-11T13:55:26;-0.48;88.64
69546;SHT31;56766;52.260;20.746;2024-01-11T13:57:53;-0.44;88.70
69546;SHT31;56766;52.260;20.746;2024-01-11T14:00:20;-0.42;88.69
69546;SHT31;56766;52.260;20.746;2024-01-11T14:02:47;-0.38;88.70
69546;SHT31;56766;52.260;20.746;2024-01-11T14:05:15;-0.34;88.70
69546;SHT31;56766;52.260;20.746;2024-01-11T14:07:44;-0.31;88.70
69546;SHT31;56766;52.260;20.746;2024-01-11T14:10:12;-0.29;88.71
69546;SHT31;56766;52.260;20.746;2024-01-11T14:12:40;-0.29;88.76
69546;SHT31;56766;52.260;20.746;2024-01-11T14:15:09;-0.29;88.80
69546;SHT31;56766;52.260;20.746;2024-01-11T14:17:39;-0.27;88.88
69546;SHT31;56766;52.260;20.746;2024-01-11T14:20:06;-0.28;88.94
69546;SHT31;56766;52.260;20.746;2024-01-11T14:22:40;-0.26;89.00
69546;SHT31;56766;52.260;20.746;2024-01-11T14:25:09;-0.24;89.10
69546;SHT31;56766;52.260;20.746;2024-01-11T14:27:39;-0.22;89.11
69546;SHT31;56766;52.260;20.746;2024-01-11T14:30:06;-0.20;89.16
69546;SHT31;56766;52.260;20.746;2024-01-11T14:32:34;-0.19;89.21
69546;SHT31;56766;52.260;20.746;2024-01-11T14:35:01;-0.14;89.26
69546;SHT31;56766;52.260;20.746;2024-01-11T14:37:35;-0.12;89.36
69546;SHT31;56766;52.260;20.746;2024-01-11T14:40:08;-0.10;89.52
69546;SHT31;56766;52.260;20.746;2024-01-11T14:42:38;-0.07;89.61
69546;SHT31;56766;52.260;20.746;2024-01-11T14:45:06;-0.05;89.74
69546;SHT31;56766;52.260;20.746;2024-01-11T14:47:34;-0.02;89.93
69546;SHT31;56766;52.260;20.746;2024-01-11T14:50:00;0.01;90.15
69546;SHT31;56766;52.260;20.746;2024-01-11T14:52:27;0.07;90.32
69546;SHT31;56766;52.260;20.746;2024-01-11T14:54:54;0.10;90.44
69546;SHT31;56766;52.260;20.746;2024-01-11T14:57:20;0.15;90.66
69546;SHT31;56766;52.260;20.746;2024-01-11T14:59:47;0.18;90.82
69546;SHT31;56766;52.260;20.746;2024-01-11T15:02:14;0.22;90.96
69546;SHT31;56766;52.260;20.746;2024-01-11T15:04:41;0.26;91.11
69546;SHT31;56766;52.260;20.746;2024-01-11T15:07:07;0.29;91.10
69546;SHT31;56766;52.260;20.746;2024-01-11T15:09:37;0.34;91.21
69546;SHT31;56766;52.260;20.746;2024-01-11T15:12:04;0.36;91.21
69546;SHT31;56766;52.260;20.746;2024-01-11T15:14:31;0.38;91.31
69546;SHT31;56766;52.260;20.746;2024-01-11T15:16:58;0.41;91.41
69546;SHT31;56766;52.260;20.746;2024-01-11T15:19:25;0.45;91.65
69546;SHT31;56766;52.260;20.746;2024-01-11T15:21:52;0.50;91.60